sensor_id;sensor_type;location;lat;lon;timestamp;P1;durP1;ratioP1;P2;durP2;ratioP2
13879;SDS011;7010;48.200;16.332;2022-10-31T00:00:51;14.77;;;13.30;;
13879;SDS011;7010;48.200;16.332;2022-10-31T00:03:19;14.30;;;12.80;;
13879;SDS011;7010;48.200;16.332;2022-10-31T00:05:48;14.80;;;12.73;;
13879;SDS011;7010;48.200;16.332;2022-10-31T00:08:17;14.70;;;13.25;;
13879;SDS011;7010;48.200;16.332;2022-10-31T00:10:46;14.30;;;12.75;;
13879;SDS011;7010;48.200;16.332;2022-10-31T00:13:14;13.95;;;12.65;;
13879;SDS011;7010;48.200;16.332;2022-10-31T00:15:44;13.43;;;12.23;;
13879;SDS011;7010;48.200;16.332;2022-10-31T00:18:13;13.48;;;12.18;;
13879;SDS011;7010;48.200;16.332;2022-10-31T00:20:41;12.25;;;11.07;;
13879;SDS011;7010;48.200;16.332;2022-10-31T00:23:09;12.18;;;11.02;;
13879;SDS011;7010;48.200;16.332;2022-10-31T00:25:39;11.52;;;10.38;;
13879;SDS011;7010;48.200;16.332;2022-10-31T00:28:08;11.40;;;10.30;;
13879;SDS011;7010;48.200;16.332;2022-10-31T00:30:39;14.73;;;10.35;;
13879;SDS011;7010;48.200;16.332;2022-10-31T00:33:09;11.68;;;10.48;;
13879;SDS011;7010;48.200;16.332;2022-10-31T00:35:37;12.02;;;11.02;;
13879;SDS011;7010;48.200;16.332;2022-10-31T00:38:05;11.52;;;10.43;;
13879;SDS011;7010;48.200;16.332;2022-10-31T00:40:33;12.93;;;10.68;;
13879;SDS011;7010;48.200;16.332;2022-10-31T00:43:01;10.82;;;9.90;;
13879;SDS011;7010;48.200;16.332;2022-10-31T00:45:30;11.18;;;10.23;;
13879;SDS011;7010;48.200;16.332;2022-10-31T00:47:58;11.63;;;9.65;;
13879;SDS011;7010;48.200;16.332;2022-10-31T00:50:29;15.23;;;11.98;;
13879;SDS011;7010;48.200;16.332;2022-10-31T00:52:57;11.25;;;10.25;;
13879;SDS011;7010;48.200;16.332;2022-10-31T00:55:25;11.25;;;10.35;;
13879;SDS011;7010;48.200;16.332;2022-10-31T00:57:53;11.90;;;10.73;;
13879;SDS011;7010;48.200;16.332;2022-10-31T01:00:22;11.93;;;10.68;;
13879;SDS011;7010;48.200;16.332;2022-10-31T01:02:51;11.18;;;10.13;;
13879;SDS011;7010;48.200;16.332;2022-10-31T01:05:19;11.45;;;10.32;;
13879;SDS011;7010;48.200;16.332;2022-10-31T01:07:48;10.75;;;9.82;;
13879;SDS011;7010;48.200;16.332;2022-10-31T01:10:17;11.95;;;10.73;;
13879;SDS011;7010;48.200;16.332;2022-10-31T01:12:46;11.70;;;10.40;;
13879;SDS011;7010;48.200;16.332;2022-10-31T01:15:16;11.48;;;10.48;;
13879;SDS011;7010;48.200;16.332;2022-10-31T01:17:45;10.30;;;9.40;;
13879;SDS011;7010;48.200;16.332;2022-10-31T01:20:14;11.70;;;10.55;;
13879;SDS011;7010;48.200;16.332;2022-10-31T01:22:42;13.02;;;11.70;;
13879;SDS011;7010;48.200;16.332;2022-10-31T01:25:12;11.40;;;10.43;;
13879;SDS011;7010;48.200;16.332;2022-10-31T01:27:40;10.48;;;9.45;;
13879;SDS011;7010;48.200;16.332;2022-10-31T01:30:09;11.35;;;10.35;;
13879;SDS011;7010;48.200;16.332;2022-10-31T01:32:38;10.35;;;9.43;;
13879;SDS011;7010;48.200;16.332;2022-10-31T01:35:06;10.05;;;9.10;;
13879;SDS011;7010;48.200;16.332;2022-10-31T01:37:34;10.52;;;9.52;;
13879;SDS011;7010;48.200;16.332;2022-10-31T01:40:03;12.55;;;10.20;;
13879;SDS011;7010;48.200;16.332;2022-10-31T01:42:33;10.05;;;9.20;;
13879;SDS011;7010;48.200;16.332;2022-10-31T01:45:02;12.13;;;10.55;;
13879;SDS011;7010;48.200;16.332;2022-10-31T01:47:34;9.43;;;8.65;;
13879;SDS011;7010;48.200;16.332;2022-10-31T01:50:13;11.07;;;10.00;;
13879;SDS011;7010;48.200;16.332;2022-10-31T01:52:51;11.00;;;10.00;;
13879;SDS011;7010;48.200;16.332;2022-10-31T01:55:20;10.93;;;9.93;;
13879;SDS011;7010;48.200;16.332;2022-10-31T01:57:58;10.98;;;9.77;;
13879;SDS011;7010;48.200;16.332;2022-10-31T02:00:30;11.55;;;10.50;;
13879;SDS011;7010;48.200;16.332;2022-10-31T02:02:58;11.25;;;10.00;;
13879;SDS011;7010;48.200;16.332;2022-10-31T02:05:28;10.82;;;9.82;;
13879;SDS011;7010;48.200;16.332;2022-10-31T02:07:58;10.82;;;9.93;;
13879;SDS011;7010;48.200;16.332;2022-10-31T02:10:30;10.35;;;9.30;;
13879;SDS011;7010;48.200;16.332;2022-10-31T02:13:02;9.77;;;8.93;;
13879;SDS011;7010;48.200;16.332;2022-10-31T02:15:32;10.50;;;9.57;;
13879;SDS011;7010;48.200;16.332;2022-10-31T02:18:02;9.38;;;8.57;;
13879;SDS011;7010;48.200;16.332;2022-10-31T02:20:32;9.45;;;8.65;;
13879;SDS011;7010;48.200;16.332;2022-10-31T02:26:27;10.15;;;8.10;;
13879;SDS011;7010;48.200;16.332;2022-10-31T02:29:20;14.85;;;8.32;;
13879;SDS011;7010;48.200;16.332;2022-10-31T02:32:07;7.13;;;6.53;;
13879;SDS011;7010;48.200;16.332;2022-10-31T02:34:43;7.90;;;7.22;;
13879;SDS011;7010;48.200;16.332;2022-10-31T02:37:19;6.18;;;5.65;;
13879;SDS011;7010;48.200;16.332;2022-10-31T02:39:54;6.47;;;5.47;;
13879;SDS011;7010;48.200;16.332;2022-10-31T02:42:28;7.22;;;6.57;;
13879;SDS011;7010;48.200;16.332;2022-10-31T02:45:02;7.80;;;7.00;;
13879;SDS011;7010;48.200;16.332;2022-10-31T02:47:37;10.45;;;7.82;;
13879;SDS011;7010;48.200;16.332;2022-10-31T02:50:06;6.13;;;5.63;;
13879;SDS011;7010;48.200;16.332;2022-10-31T02:52:40;9.20;;;6.15;;
13879;SDS011;7010;48.200;16.332;2022-10-31T02:55:09;7.50;;;6.70;;
13879;SDS011;7010;48.200;16.332;2022-10-31T02:57:39;7.85;;;7.00;;
13879;SDS011;7010;48.200;16.332;2022-10-31T03:00:09;6.13;;;5.55;;
13879;SDS011;7010;48.200;16.332;2022-10-31T03:02:52;6.55;;;6.05;;
13879;SDS011;7010;48.200;16.332;2022-10-31T03:05:33;5.30;;;4.80;;
13879;SDS011;7010;48.200;16.332;2022-10-31T03:08:14;13.13;;;5.93;;
13879;SDS011;7010;48.200;16.332;2022-10-31T03:10:52;6.38;;;5.05;;
13879;SDS011;7010;48.200;16.332;2022-10-31T03:13:25;5.10;;;4.70;;
13879;SDS011;7010;48.200;16.332;2022-10-31T03:16:02;5.90;;;5.30;;
13879;SDS011;7010;48.200;16.332;2022-10-31T03:18:39;5.32;;;4.93;;
13879;SDS011;7010;48.200;16.332;2022-10-31T03:21:09;4.80;;;4.50;;
13879;SDS011;7010;48.200;16.332;2022-10-31T03:23:42;4.88;;;4.47;;
13879;SDS011;7010;48.200;16.332;2022-10-31T03:26:13;4.75;;;4.43;;
13879;SDS011;7010;48.200;16.332;2022-10-31T03:28:43;5.47;;;4.97;;
13879;SDS011;7010;48.200;16.332;2022-10-31T03:31:17;6.03;;;5.60;;
13879;SDS011;7010;48.200;16.332;2022-10-31T03:33:51;6.32;;;5.75;;
13879;SDS011;7010;48.200;16.332;2022-10-31T03:36:20;5.82;;;5.20;;
13879;SDS011;7010;48.200;16.332;2022-10-31T03:38:50;4.70;;;4.30;;
13879;SDS011;7010;48.200;16.332;2022-10-31T03:41:21;4.45;;;4.05;;
13879;SDS011;7010;48.200;16.332;2022-10-31T03:43:52;5.32;;;4.55;;
13879;SDS011;7010;48.200;16.332;2022-10-31T03:46:25;5.60;;;5.13;;
13879;SDS011;7010;48.200;16.332;2022-10-31T03:48:55;4.80;;;4.22;;
13879;SDS011;7010;48.200;16.332;2022-10-31T03:51:25;5.22;;;4.70;;
13879;SDS011;7010;48.200;16.332;2022-10-31T03:54:01;4.55;;;4.25;;
13879;SDS011;7010;48.200;16.332;2022-10-31T03:56:36;5.75;;;4.97;;
13879;SDS011;7010;48.200;16.332;2022-10-31T03:59:09;4.55;;;4.25;;
13879;SDS011;7010;48.200;16.332;2022-10-31T04:01:44;4.10;;;3.83;;
13879;SDS011;7010;48.200;16.332;2022-10-31T04:04:16;5.43;;;4.93;;
13879;SDS011;7010;48.200;16.332;2022-10-31T04:06:46;4.68;;;4.28;;
13879;SDS011;7010;48.200;16.332;2022-10-31T04:09:16;5.72;;;4.32;;
13879;SDS011;7010;48.200;16.332;2022-10-31T04:11:48;3.75;;;3.55;;
13879;SDS011;7010;48.200;16.332;2022-10-31T04:14:20;4.45;;;4.15;;
13879;SDS011;7010;48.200;16.332;2022-10-31T04:16:51;4.72;;;4.32;;
13879;SDS011;7010;48.200;16.332;2022-10-31T04:19:21;4.05;;;3.75;;
13879;SDS011;7010;48.200;16.332;2022-10-31T04:21:49;3.47;;;3.28;;
13879;SDS011;7010;48.200;16.332;2022-10-31T04:24:18;4.47;;;4.10;;
13879;SDS011;7010;48.200;16.332;2022-10-31T04:26:46;4.18;;;3.88;;
13879;SDS011;7010;48.200;16.332;2022-10-31T04:29:14;4.70;;;4.30;;
13879;SDS011;7010;48.200;16.332;2022-10-31T04:31:42;4.82;;;4.35;;
13879;SDS011;7010;48.200;16.332;2022-10-31T04:34:10;4.32;;;4.00;;
13879;SDS011;7010;48.200;16.332;2022-10-31T04:36:40;4.70;;;4.30;;
13879;SDS011;7010;48.200;16.332;2022-10-31T04:39:08;4.28;;;3.92;;
13879;SDS011;7010;48.200;16.332;2022-10-31T04:41:36;4.97;;;4.57;;
13879;SDS011;7010;48.200;16.332;2022-10-31T04:44:05;4.93;;;4.53;;
13879;SDS011;7010;48.200;16.332;2022-10-31T04:46:33;4.20;;;3.90;;
13879;SDS011;7010;48.200;16.332;2022-10-31T04:49:01;4.13;;;3.83;;
13879;SDS011;7010;48.200;16.332;2022-10-31T04:51:30;3.92;;;3.63;;
13879;SDS011;7010;48.200;16.332;2022-10-31T04:53:59;4.50;;;4.10;;
13879;SDS011;7010;48.200;16.332;2022-10-31T04:56:27;4.80;;;4.40;;
13879;SDS011;7010;48.200;16.332;2022-10-31T04:58:56;4.53;;;4.13;;
13879;SDS011;7010;48.200;16.332;2022-10-31T05:01:24;3.38;;;3.17;;
13879;SDS011;7010;48.200;16.332;2022-10-31T05:03:52;4.32;;;3.92;;
13879;SDS011;7010;48.200;16.332;2022-10-31T05:06:21;5.15;;;4.40;;
13879;SDS011;7010;48.200;16.332;2022-10-31T05:08:49;4.32;;;4.03;;
13879;SDS011;7010;48.200;16.332;2022-10-31T05:11:19;3.75;;;3.47;;
13879;SDS011;7010;48.200;16.332;2022-10-31T05:13:47;4.32;;;3.92;;
13879;SDS011;7010;48.200;16.332;2022-10-31T05:16:15;4.40;;;4.07;;
13879;SDS011;7010;48.200;16.332;2022-10-31T05:18:43;4.00;;;3.70;;
13879;SDS011;7010;48.200;16.332;2022-10-31T05:21:12;4.90;;;4.45;;
13879;SDS011;7010;48.200;16.332;2022-10-31T05:23:40;4.40;;;4.10;;
13879;SDS011;7010;48.200;16.332;2022-10-31T05:26:13;4.85;;;4.45;;
13879;SDS011;7010;48.200;16.332;2022-10-31T05:28:43;5.00;;;4.60;;
13879;SDS011;7010;48.200;16.332;2022-10-31T05:31:11;5.50;;;4.32;;
13879;SDS011;7010;48.200;16.332;2022-10-31T05:33:40;5.13;;;4.57;;
13879;SDS011;7010;48.200;16.332;2022-10-31T05:36:08;4.18;;;3.88;;
13879;SDS011;7010;48.200;16.332;2022-10-31T05:38:36;5.88;;;5.38;;
13879;SDS011;7010;48.200;16.332;2022-10-31T05:41:04;5.53;;;5.03;;
13879;SDS011;7010;48.200;16.332;2022-10-31T05:43:33;5.35;;;4.50;;
13879;SDS011;7010;48.200;16.332;2022-10-31T05:46:03;4.78;;;4.35;;
13879;SDS011;7010;48.200;16.332;2022-10-31T05:48:31;5.05;;;4.65;;
13879;SDS011;7010;48.200;16.332;2022-10-31T05:50:59;4.68;;;4.25;;
13879;SDS011;7010;48.200;16.332;2022-10-31T05:53:27;4.78;;;4.38;;
13879;SDS011;7010;48.200;16.332;2022-10-31T05:55:56;5.13;;;4.60;;
13879;SDS011;7010;48.200;16.332;2022-10-31T05:58:24;5.00;;;4.60;;
13879;SDS011;7010;48.200;16.332;2022-10-31T06:00:52;5.55;;;5.05;;
13879;SDS011;7010;48.200;16.332;2022-10-31T06:03:22;5.72;;;4.78;;
13879;SDS011;7010;48.200;16.332;2022-10-31T06:05:51;4.10;;;3.80;;
13879;SDS011;7010;48.200;16.332;2022-10-31T06:08:20;5.50;;;5.00;;
13879;SDS011;7010;48.200;16.332;2022-10-31T06:10:49;4.03;;;3.72;;
13879;SDS011;7010;48.200;16.332;2022-10-31T06:13:19;4.60;;;4.00;;
13879;SDS011;7010;48.200;16.332;2022-10-31T06:15:47;5.22;;;4.50;;
13879;SDS011;7010;48.200;16.332;2022-10-31T06:18:16;4.07;;;3.67;;
13879;SDS011;7010;48.200;16.332;2022-10-31T06:20:45;4.05;;;3.75;;
13879;SDS011;7010;48.200;16.332;2022-10-31T06:23:14;4.88;;;4.50;;
13879;SDS011;7010;48.200;16.332;2022-10-31T06:25:42;4.97;;;4.57;;
13879;SDS011;7010;48.200;16.332;2022-10-31T06:28:10;4.82;;;4.10;;
13879;SDS011;7010;48.200;16.332;2022-10-31T06:30:39;5.25;;;4.50;;
13879;SDS011;7010;48.200;16.332;2022-10-31T06:33:07;5.03;;;4.63;;
13879;SDS011;7010;48.200;16.332;2022-10-31T06:35:35;4.65;;;4.25;;
13879;SDS011;7010;48.200;16.332;2022-10-31T06:38:05;6.00;;;5.22;;
13879;SDS011;7010;48.200;16.332;2022-10-31T06:40:33;4.97;;;4.50;;
13879;SDS011;7010;48.200;16.332;2022-10-31T06:43:02;5.13;;;4.72;;
13879;SDS011;7010;48.200;16.332;2022-10-31T06:45:30;4.88;;;4.47;;
13879;SDS011;7010;48.200;16.332;2022-10-31T06:47:58;7.10;;;5.32;;
13879;SDS011;7010;48.200;16.332;2022-10-31T06:50:42;4.72;;;4.32;;
13879;SDS011;7010;48.200;16.332;2022-10-31T06:53:12;6.50;;;5.90;;
13879;SDS011;7010;48.200;16.332;2022-10-31T06:55:41;9.02;;;6.30;;
13879;SDS011;7010;48.200;16.332;2022-10-31T06:58:10;6.43;;;5.80;;
13879;SDS011;7010;48.200;16.332;2022-10-31T07:00:38;5.22;;;4.72;;
13879;SDS011;7010;48.200;16.332;2022-10-31T07:03:09;7.65;;;4.78;;
13879;SDS011;7010;48.200;16.332;2022-10-31T07:05:39;7.88;;;4.97;;
13879;SDS011;7010;48.200;16.332;2022-10-31T07:08:08;6.75;;;4.72;;
13879;SDS011;7010;48.200;16.332;2022-10-31T07:10:40;5.80;;;5.20;;
13879;SDS011;7010;48.200;16.332;2022-10-31T07:13:10;5.70;;;5.07;;
13879;SDS011;7010;48.200;16.332;2022-10-31T07:15:40;5.30;;;4.70;;
13879;SDS011;7010;48.200;16.332;2022-10-31T07:18:09;5.32;;;4.88;;
13879;SDS011;7010;48.200;16.332;2022-10-31T07:20:39;6.15;;;5.35;;
13879;SDS011;7010;48.200;16.332;2022-10-31T07:23:07;7.55;;;4.72;;
13879;SDS011;7010;48.200;16.332;2022-10-31T07:25:37;4.68;;;4.32;;
13879;SDS011;7010;48.200;16.332;2022-10-31T07:28:07;5.45;;;5.00;;
13879;SDS011;7010;48.200;16.332;2022-10-31T07:30:36;5.18;;;4.72;;
13879;SDS011;7010;48.200;16.332;2022-10-31T07:33:05;5.18;;;4.78;;
13879;SDS011;7010;48.200;16.332;2022-10-31T07:35:34;15.63;;;4.47;;
13879;SDS011;7010;48.200;16.332;2022-10-31T07:38:08;5.97;;;5.38;;
13879;SDS011;7010;48.200;16.332;2022-10-31T07:40:38;6.05;;;5.15;;
13879;SDS011;7010;48.200;16.332;2022-10-31T07:43:08;7.72;;;5.53;;
13879;SDS011;7010;48.200;16.332;2022-10-31T07:45:40;7.38;;;5.80;;
13879;SDS011;7010;48.200;16.332;2022-10-31T07:48:08;6.53;;;5.93;;
13879;SDS011;7010;48.200;16.332;2022-10-31T07:50:36;7.22;;;6.10;;
13879;SDS011;7010;48.200;16.332;2022-10-31T07:53:06;5.22;;;4.82;;
13879;SDS011;7010;48.200;16.332;2022-10-31T07:55:36;6.18;;;5.65;;
13879;SDS011;7010;48.200;16.332;2022-10-31T07:58:05;7.03;;;6.43;;
13879;SDS011;7010;48.200;16.332;2022-10-31T08:00:35;7.25;;;6.28;;
13879;SDS011;7010;48.200;16.332;2022-10-31T08:03:05;8.80;;;7.53;;
13879;SDS011;7010;48.200;16.332;2022-10-31T08:05:35;8.05;;;7.25;;
13879;SDS011;7010;48.200;16.332;2022-10-31T08:08:04;9.18;;;6.90;;
13879;SDS011;7010;48.200;16.332;2022-10-31T08:10:33;6.70;;;6.13;;
13879;SDS011;7010;48.200;16.332;2022-10-31T08:13:02;5.93;;;5.30;;
13879;SDS011;7010;48.200;16.332;2022-10-31T08:15:33;6.80;;;6.07;;
13879;SDS011;7010;48.200;16.332;2022-10-31T08:18:05;6.90;;;6.10;;
13879;SDS011;7010;48.200;16.332;2022-10-31T08:20:38;7.00;;;6.30;;
13879;SDS011;7010;48.200;16.332;2022-10-31T08:23:06;7.32;;;6.28;;
13879;SDS011;7010;48.200;16.332;2022-10-31T08:25:36;9.05;;;6.43;;
13879;SDS011;7010;48.200;16.332;2022-10-31T08:28:05;10.75;;;6.20;;
13879;SDS011;7010;48.200;16.332;2022-10-31T08:30:35;7.55;;;6.70;;
13879;SDS011;7010;48.200;16.332;2022-10-31T08:33:08;8.07;;;7.28;;
13879;SDS011;7010;48.200;16.332;2022-10-31T08:35:37;7.97;;;7.13;;
13879;SDS011;7010;48.200;16.332;2022-10-31T08:38:06;11.32;;;7.85;;
13879;SDS011;7010;48.200;16.332;2022-10-31T08:40:36;8.77;;;7.82;;
13879;SDS011;7010;48.200;16.332;2022-10-31T08:43:05;9.38;;;8.23;;
13879;SDS011;7010;48.200;16.332;2022-10-31T08:45:34;9.70;;;8.77;;
13879;SDS011;7010;48.200;16.332;2022-10-31T08:48:03;12.68;;;8.95;;
13879;SDS011;7010;48.200;16.332;2022-10-31T08:50:35;11.48;;;8.75;;
13879;SDS011;7010;48.200;16.332;2022-10-31T08:53:05;9.63;;;8.07;;
13879;SDS011;7010;48.200;16.332;2022-10-31T08:55:35;12.15;;;9.20;;
13879;SDS011;7010;48.200;16.332;2022-10-31T08:58:05;14.25;;;8.70;;
13879;SDS011;7010;48.200;16.332;2022-10-31T09:00:34;15.23;;;10.10;;
13879;SDS011;7010;48.200;16.332;2022-10-31T09:03:03;11.10;;;9.95;;
13879;SDS011;7010;48.200;16.332;2022-10-31T09:05:35;10.90;;;9.07;;
13879;SDS011;7010;48.200;16.332;2022-10-31T09:08:04;10.00;;;8.98;;
13879;SDS011;7010;48.200;16.332;2022-10-31T09:10:41;10.77;;;9.68;;
13879;SDS011;7010;48.200;16.332;2022-10-31T09:13:10;10.27;;;9.13;;
13879;SDS011;7010;48.200;16.332;2022-10-31T09:15:40;11.68;;;10.07;;
13879;SDS011;7010;48.200;16.332;2022-10-31T09:18:11;12.95;;;9.95;;
13879;SDS011;7010;48.200;16.332;2022-10-31T09:20:42;12.75;;;11.00;;
13879;SDS011;7010;48.200;16.332;2022-10-31T09:23:12;11.73;;;10.52;;
13879;SDS011;7010;48.200;16.332;2022-10-31T09:25:42;12.73;;;10.77;;
13879;SDS011;7010;48.200;16.332;2022-10-31T09:28:16;10.38;;;9.40;;
13879;SDS011;7010;48.200;16.332;2022-10-31T09:30:46;11.07;;;9.95;;
13879;SDS011;7010;48.200;16.332;2022-10-31T09:33:15;11.50;;;10.30;;
13879;SDS011;7010;48.200;16.332;2022-10-31T09:35:45;15.55;;;11.18;;
13879;SDS011;7010;48.200;16.332;2022-10-31T09:38:14;16.55;;;10.95;;
13879;SDS011;7010;48.200;16.332;2022-10-31T09:40:46;12.18;;;9.75;;
13879;SDS011;7010;48.200;16.332;2022-10-31T09:43:19;12.10;;;10.88;;
13879;SDS011;7010;48.200;16.332;2022-10-31T09:45:56;12.50;;;11.30;;
13879;SDS011;7010;48.200;16.332;2022-10-31T09:48:40;11.27;;;10.05;;
13879;SDS011;7010;48.200;16.332;2022-10-31T09:51:23;13.38;;;11.65;;
13879;SDS011;7010;48.200;16.332;2022-10-31T09:53:58;12.93;;;10.43;;
13879;SDS011;7010;48.200;16.332;2022-10-31T09:56:31;11.35;;;10.10;;
13879;SDS011;7010;48.200;16.332;2022-10-31T09:59:01;13.50;;;10.48;;
13879;SDS011;7010;48.200;16.332;2022-10-31T10:01:34;13.52;;;11.45;;
13879;SDS011;7010;48.200;16.332;2022-10-31T10:04:18;11.27;;;10.18;;
13879;SDS011;7010;48.200;16.332;2022-10-31T10:06:57;12.13;;;10.50;;
13879;SDS011;7010;48.200;16.332;2022-10-31T10:09:27;10.57;;;9.52;;
13879;SDS011;7010;48.200;16.332;2022-10-31T10:11:59;12.90;;;11.52;;
13879;SDS011;7010;48.200;16.332;2022-10-31T10:14:40;11.32;;;9.88;;
13879;SDS011;7010;48.200;16.332;2022-10-31T10:17:18;13.77;;;11.20;;
13879;SDS011;7010;48.200;16.332;2022-10-31T10:20:01;12.07;;;10.65;;
13879;SDS011;7010;48.200;16.332;2022-10-31T10:22:50;15.02;;;11.55;;
13879;SDS011;7010;48.200;16.332;2022-10-31T10:25:23;12.23;;;10.93;;
13879;SDS011;7010;48.200;16.332;2022-10-31T10:27:59;17.15;;;12.20;;
13879;SDS011;7010;48.200;16.332;2022-10-31T10:30:36;13.02;;;11.73;;
13879;SDS011;7010;48.200;16.332;2022-10-31T10:33:09;15.32;;;13.27;;
13879;SDS011;7010;48.200;16.332;2022-10-31T10:35:41;14.25;;;12.75;;
13879;SDS011;7010;48.200;16.332;2022-10-31T10:38:17;16.00;;;13.43;;
13879;SDS011;7010;48.200;16.332;2022-10-31T10:40:50;13.75;;;12.32;;
13879;SDS011;7010;48.200;16.332;2022-10-31T10:43:21;15.32;;;12.35;;
13879;SDS011;7010;48.200;16.332;2022-10-31T10:49:04;16.33;;;12.98;;
13879;SDS011;7010;48.200;16.332;2022-10-31T10:51:40;17.35;;;13.27;;
13879;SDS011;7010;48.200;16.332;2022-10-31T10:54:45;15.75;;;13.23;;
13879;SDS011;7010;48.200;16.332;2022-10-31T10:57:22;19.48;;;15.27;;
13879;SDS011;7010;48.200;16.332;2022-10-31T10:59:59;14.32;;;12.77;;
13879;SDS011;7010;48.200;16.332;2022-10-31T11:02:44;15.93;;;14.38;;
13879;SDS011;7010;48.200;16.332;2022-10-31T11:05:22;15.32;;;13.73;;
13879;SDS011;7010;48.200;16.332;2022-10-31T11:07:52;20.13;;;14.63;;
13879;SDS011;7010;48.200;16.332;2022-10-31T11:10:22;15.32;;;13.85;;
13879;SDS011;7010;48.200;16.332;2022-10-31T11:12:58;14.82;;;13.30;;
13879;SDS011;7010;48.200;16.332;2022-10-31T11:15:31;14.57;;;13.18;;
13879;SDS011;7010;48.200;16.332;2022-10-31T11:18:02;14.32;;;12.90;;
13879;SDS011;7010;48.200;16.332;2022-10-31T11:20:31;16.23;;;14.23;;
13879;SDS011;7010;48.200;16.332;2022-10-31T11:23:05;17.98;;;14.52;;
13879;SDS011;7010;48.200;16.332;2022-10-31T11:25:55;14.93;;;12.93;;
13879;SDS011;7010;48.200;16.332;2022-10-31T11:28:25;19.38;;;13.63;;
13879;SDS011;7010;48.200;16.332;2022-10-31T11:30:56;15.15;;;13.40;;
13879;SDS011;7010;48.200;16.332;2022-10-31T11:33:27;15.05;;;13.02;;
13879;SDS011;7010;48.200;16.332;2022-10-31T11:35:59;15.60;;;13.93;;
13879;SDS011;7010;48.200;16.332;2022-10-31T11:38:32;20.23;;;15.75;;
13879;SDS011;7010;48.200;16.332;2022-10-31T11:41:10;21.63;;;16.38;;
13879;SDS011;7010;48.200;16.332;2022-10-31T11:43:45;19.17;;;15.68;;
13879;SDS011;7010;48.200;16.332;2022-10-31T11:46:19;17.88;;;15.52;;
13879;SDS011;7010;48.200;16.332;2022-10-31T11:48:51;20.15;;;14.70;;
13879;SDS011;7010;48.200;16.332;2022-10-31T11:51:23;20.35;;;15.80;;
13879;SDS011;7010;48.200;16.332;2022-10-31T11:53:54;16.92;;;15.20;;
13879;SDS011;7010;48.200;16.332;2022-10-31T11:56:37;23.27;;;15.93;;
13879;SDS011;7010;48.200;16.332;2022-10-31T11:59:15;22.33;;;16.30;;
13879;SDS011;7010;48.200;16.332;2022-10-31T12:01:50;19.50;;;16.60;;
13879;SDS011;7010;48.200;16.332;2022-10-31T12:04:23;24.13;;;19.40;;
13879;SDS011;7010;48.200;16.332;2022-10-31T12:07:02;23.42;;;17.88;;
13879;SDS011;7010;48.200;16.332;2022-10-31T12:09:32;18.27;;;16.42;;
13879;SDS011;7010;48.200;16.332;2022-10-31T12:12:23;19.83;;;17.70;;
13879;SDS011;7010;48.200;16.332;2022-10-31T12:15:04;19.42;;;17.48;;
13879;SDS011;7010;48.200;16.332;2022-10-31T12:17:42;20.58;;;18.10;;
13879;SDS011;7010;48.200;16.332;2022-10-31T12:20:19;22.73;;;19.55;;
13879;SDS011;7010;48.200;16.332;2022-10-31T12:22:56;26.77;;;20.10;;
13879;SDS011;7010;48.200;16.332;2022-10-31T12:25:33;27.98;;;22.70;;
13879;SDS011;7010;48.200;16.332;2022-10-31T12:28:18;35.10;;;25.52;;
13879;SDS011;7010;48.200;16.332;2022-10-31T12:31:03;34.53;;;25.38;;
13879;SDS011;7010;48.200;16.332;2022-10-31T12:33:52;32.15;;;24.55;;
13879;SDS011;7010;48.200;16.332;2022-10-31T12:36:34;28.80;;;24.88;;
13879;SDS011;7010;48.200;16.332;2022-10-31T12:39:24;34.47;;;25.77;;
13879;SDS011;7010;48.200;16.332;2022-10-31T12:41:58;28.05;;;24.80;;
13879;SDS011;7010;48.200;16.332;2022-10-31T12:44:40;31.30;;;25.58;;
13879;SDS011;7010;48.200;16.332;2022-10-31T12:47:38;34.50;;;26.02;;
13879;SDS011;7010;48.200;16.332;2022-10-31T12:50:20;32.13;;;27.73;;
13879;SDS011;7010;48.200;16.332;2022-10-31T12:52:58;30.25;;;26.08;;
13879;SDS011;7010;48.200;16.332;2022-10-31T12:55:38;39.78;;;26.95;;
13879;SDS011;7010;48.200;16.332;2022-10-31T12:58:17;32.42;;;27.05;;
13879;SDS011;7010;48.200;16.332;2022-10-31T13:00:53;38.15;;;26.73;;
13879;SDS011;7010;48.200;16.332;2022-10-31T13:03:30;31.50;;;27.55;;
13879;SDS011;7010;48.200;16.332;2022-10-31T13:06:07;33.53;;;27.92;;
13879;SDS011;7010;48.200;16.332;2022-10-31T13:08:40;35.15;;;28.35;;
13879;SDS011;7010;48.200;16.332;2022-10-31T13:11:13;33.00;;;27.38;;
13879;SDS011;7010;48.200;16.332;2022-10-31T13:13:45;32.75;;;26.25;;
13879;SDS011;7010;48.200;16.332;2022-10-31T13:16:21;50.90;;;26.77;;
13879;SDS011;7010;48.200;16.332;2022-10-31T13:18:54;33.70;;;27.20;;
13879;SDS011;7010;48.200;16.332;2022-10-31T13:21:26;34.10;;;26.48;;
13879;SDS011;7010;48.200;16.332;2022-10-31T13:23:58;35.13;;;27.83;;
13879;SDS011;7010;48.200;16.332;2022-10-31T13:26:34;36.25;;;27.27;;
13879;SDS011;7010;48.200;16.332;2022-10-31T13:29:11;34.10;;;27.42;;
13879;SDS011;7010;48.200;16.332;2022-10-31T13:31:47;43.67;;;28.33;;
13879;SDS011;7010;48.200;16.332;2022-10-31T13:34:20;36.63;;;29.00;;
13879;SDS011;7010;48.200;16.332;2022-10-31T13:36:55;37.95;;;28.73;;
13879;SDS011;7010;48.200;16.332;2022-10-31T13:39:31;38.75;;;29.83;;
13879;SDS011;7010;48.200;16.332;2022-10-31T13:42:11;35.47;;;28.83;;
13879;SDS011;7010;48.200;16.332;2022-10-31T13:44:43;57.50;;;30.27;;
13879;SDS011;7010;48.200;16.332;2022-10-31T13:47:22;38.60;;;30.85;;
13879;SDS011;7010;48.200;16.332;2022-10-31T13:50:02;45.05;;;33.17;;
13879;SDS011;7010;48.200;16.332;2022-10-31T13:52:33;48.75;;;30.05;;
13879;SDS011;7010;48.200;16.332;2022-10-31T13:55:01;39.72;;;29.73;;
13879;SDS011;7010;48.200;16.332;2022-10-31T13:57:30;33.60;;;30.00;;
13879;SDS011;7010;48.200;16.332;2022-10-31T14:00:04;49.13;;;29.48;;
13879;SDS011;7010;48.200;16.332;2022-10-31T14:02:35;41.95;;;33.33;;
13879;SDS011;7010;48.200;16.332;2022-10-31T14:05:05;40.08;;;31.23;;
13879;SDS011;7010;48.200;16.332;2022-10-31T14:07:46;37.20;;;32.67;;
13879;SDS011;7010;48.200;16.332;2022-10-31T14:10:20;46.58;;;31.73;;
13879;SDS011;7010;48.200;16.332;2022-10-31T14:12:52;43.90;;;32.83;;
13879;SDS011;7010;48.200;16.332;2022-10-31T14:15:22;39.72;;;31.88;;
13879;SDS011;7010;48.200;16.332;2022-10-31T14:17:54;49.50;;;31.88;;
13879;SDS011;7010;48.200;16.332;2022-10-31T14:20:31;44.38;;;34.20;;
13879;SDS011;7010;48.200;16.332;2022-10-31T14:26:18;41.75;;;34.72;;
13879;SDS011;7010;48.200;16.332;2022-10-31T14:28:58;41.80;;;32.30;;
13879;SDS011;7010;48.200;16.332;2022-10-31T14:31:29;40.38;;;31.85;;
13879;SDS011;7010;48.200;16.332;2022-10-31T14:34:04;43.65;;;31.05;;
13879;SDS011;7010;48.200;16.332;2022-10-31T14:36:49;39.13;;;31.60;;
13879;SDS011;7010;48.200;16.332;2022-10-31T14:39:27;41.30;;;31.60;;
13879;SDS011;7010;48.200;16.332;2022-10-31T14:42:05;45.40;;;33.55;;
13879;SDS011;7010;48.200;16.332;2022-10-31T14:44:56;67.30;;;35.67;;
13879;SDS011;7010;48.200;16.332;2022-10-31T14:47:45;38.63;;;32.65;;
13879;SDS011;7010;48.200;16.332;2022-10-31T14:50:36;42.75;;;34.10;;
13879;SDS011;7010;48.200;16.332;2022-10-31T14:53:12;47.38;;;34.80;;
13879;SDS011;7010;48.200;16.332;2022-10-31T14:55:47;46.15;;;34.92;;
13879;SDS011;7010;48.200;16.332;2022-10-31T14:58:18;49.75;;;35.33;;
13879;SDS011;7010;48.200;16.332;2022-10-31T15:00:50;46.90;;;32.70;;
13879;SDS011;7010;48.200;16.332;2022-10-31T15:03:22;42.83;;;34.25;;
13879;SDS011;7010;48.200;16.332;2022-10-31T15:05:56;38.17;;;34.15;;
13879;SDS011;7010;48.200;16.332;2022-10-31T15:08:38;48.15;;;34.90;;
13879;SDS011;7010;48.200;16.332;2022-10-31T15:11:11;46.53;;;34.90;;
13879;SDS011;7010;48.200;16.332;2022-10-31T15:13:41;43.88;;;35.05;;